Portada
METAR-TAF:

METAR-TAF

Aeropuertos :

New Ulm Municipal Airport

New Ulm, Minnesota, Estados Unidos

latitud: 44-19N, longitud: 094-30W, altitud: 308 m

Observación

El informe se hizo hace 9 minutos, a las 01:55 UTC
Viento 13 kt del noroeste con ráfagas de 17 kt
Temperatura 19°C
Humedad 40%
Presión 1016 hPa
Visibilidad: 16.1 km
Cielo despejado

METAR: KULM 290155Z AUTO 32013G17KT 10SM CLR 19/05 A2999 RMK AO2

Hora: 21:04 (02:04 UTC)


TAF: falta

Observaciones y pronósticos meteorológicos de más de 4000 aeropuertos (mensajes METAR y TAF).

Los puntos amarillos y rojos representan las estaciones disponibles.

Ponga el ratón en el punto deseado para ver el nombre de la estación.

Haga clic para ver las observaciones y los pronósticos meteorológicos.

Para cambiar el mapa : haga clic en los botones verdes con una cruz de color negro para hacer un zoom, en el botón verde con un guión para alejar o en las flechas verdes para mapas adyacentes.


METAR-TAF: